Time;durP1;ratioP1;P1;durP2;ratioP2;P2;SDS_P1;SDS_P2;PMS_P1;PMS_P2;Temp;Humidity;BMP_temperature;BMP_pressure;BME280_temperature;BME280_humidity;BME280_pressure;Samples;Min_cycle;Max_cycle;Signal;HPM_P1;HPM_P2
2023/09/01 00:01:35;;;;;;;;;0.75;0.75;;;;;20.67;84.83;100837.69;5064212;28;49433;-67
2023/09/01 00:04:00;;;;;;;;;1.00;0.00;;;;;20.60;84.85;100831.81;5060837;28;45586;-66
2023/09/01 00:06:25;;;;;;;;;2.50;0.00;;;;;20.67;84.96;100846.69;5060592;28;57640;-66
2023/09/01 00:08:51;;;;;;;;;0.25;0.25;;;;;20.64;84.60;100838.75;5061353;28;53521;-66
2023/09/01 00:11:17;;;;;;;;;0.00;0.00;;;;;20.62;84.42;100834.41;5061970;28;45369;-66
2023/09/01 00:13:42;;;;;;;;;1.00;1.00;;;;;20.65;84.65;100832.38;5061711;28;45668;-66
2023/09/01 00:16:08;;;;;;;;;2.00;0.25;;;;;20.62;84.60;100829.84;5061681;28;45326;-66
2023/09/01 00:18:33;;;;;;;;;0.00;0.00;;;;;20.64;84.53;100832.50;5059604;28;46854;-66
2023/09/01 00:21:05;;;;;;;;;2.00;1.00;;;;;20.64;84.65;100833.34;5059926;28;45385;-66
2023/09/01 00:23:31;;;;;;;;;0.75;0.50;;;;;20.64;84.51;100830.63;5056278;28;47363;-66
2023/09/01 00:25:59;;;;;;;;;0.50;0.50;;;;;20.63;84.67;100836.16;5061585;28;45402;-66
2023/09/01 00:28:25;;;;;;;;;1.00;1.00;;;;;20.60;84.54;100829.09;5060165;28;45470;-66
2023/09/01 00:31:00;;;;;;;;;0.00;0.00;;;;;20.59;84.75;100824.66;5061598;28;45268;-66
2023/09/01 00:33:30;;;;;;;;;1.00;0.75;;;;;20.58;84.76;100822.94;5060827;28;45656;-66
2023/09/01 00:35:57;;;;;;;;;0.75;0.25;;;;;20.61;84.88;100827.25;5059969;28;45498;-67
2023/09/01 00:38:24;;;;;;;;;0.00;0.00;;;;;20.57;85.32;100826.63;5060617;28;45369;-67
2023/09/01 00:40:50;;;;;;;;;1.00;1.00;;;;;20.55;85.17;100825.88;5060116;28;45485;-66
2023/09/01 00:43:16;;;;;;;;;0.00;0.00;;;;;20.55;84.68;100842.13;5059341;28;45705;-66
2023/09/01 00:45:42;;;;;;;;;0.50;0.50;;;;;20.57;85.07;100833.88;5056706;28;45382;-66
2023/09/01 00:48:10;;;;;;;;;1.00;1.00;;;;;20.46;85.56;100819.25;5060699;28;45359;-67
2023/09/01 00:50:36;;;;;;;;;0.75;0.75;;;;;20.52;85.30;100828.78;5060932;28;45449;-66
2023/09/01 00:53:04;;;;;;;;;1.25;1.25;;;;;20.58;85.00;100839.19;5064637;28;46943;-67
2023/09/01 00:55:31;;;;;;;;;0.00;0.00;;;;;20.59;85.36;100837.34;5060678;28;45400;-67
2023/09/01 00:57:56;;;;;;;;;0.00;0.00;;;;;20.51;85.27;100827.06;5076082;28;45477;-66
2023/09/01 01:00:21;;;;;;;;;0.00;0.00;;;;;20.50;85.44;100833.47;5060923;28;45286;-66
2023/09/01 01:02:48;;;;;;;;;2.00;0.25;;;;;20.53;85.30;100831.41;5060506;28;45321;-67
2023/09/01 01:05:15;;;;;;;;;1.75;1.00;;;;;20.52;85.18;100843.22;5060767;28;45427;-66
2023/09/01 01:08:08;;;;;;;;;2.25;1.00;;;;;20.53;85.39;100836.81;5075552;28;45520;-66
2023/09/01 01:10:49;;;;;;;;;1.25;1.25;;;;;20.53;85.58;100830.50;5060254;28;45471;-66
2023/09/01 01:13:18;;;;;;;;;0.25;0.25;;;;;20.52;85.58;100824.22;5059482;28;45835;-66
2023/09/01 01:15:44;;;;;;;;;1.00;1.00;;;;;20.50;85.29;100825.34;5050341;28;45317;-67
2023/09/01 01:18:13;;;;;;;;;0.75;0.75;;;;;20.52;85.69;100831.50;5058925;28;45419;-66
2023/09/01 01:20:45;;;;;;;;;1.00;1.00;;;;;20.53;85.64;100828.69;5076159;28;45579;-67
2023/09/01 01:23:11;;;;;;;;;1.00;1.00;;;;;20.53;85.73;100825.97;5060136;28;45658;-66
2023/09/01 01:25:45;;;;;;;;;0.25;0.25;;;;;20.54;85.76;100833.13;5060801;28;45632;-67
2023/09/01 01:28:10;;;;;;;;;0.50;0.00;;;;;20.51;85.32;100824.34;5059995;28;46164;-66
2023/09/01 01:30:37;;;;;;;;;3.50;0.00;;;;;20.53;85.87;100822.38;5076377;28;45321;-66
2023/09/01 01:33:03;;;;;;;;;0.75;0.25;;;;;20.47;85.47;100814.72;5075937;27;48123;-66
2023/09/01 01:35:34;;;;;;;;;1.00;0.25;;;;;20.53;85.70;100827.78;5054097;28;45463;-66
2023/09/01 01:38:13;;;;;;;;;0.50;0.50;;;;;20.52;85.25;100824.22;5059585;28;45423;-66
2023/09/01 01:40:45;;;;;;;;;1.25;0.00;;;;;20.45;85.17;100811.25;5060518;28;45400;-67
2023/09/01 01:43:11;;;;;;;;;0.00;0.00;;;;;20.48;85.31;100811.00;5059896;28;46219;-66
2023/09/01 01:45:42;;;;;;;;;1.00;1.00;;;;;20.49;86.14;100824.44;5060534;28;45330;-66
2023/09/01 01:48:07;;;;;;;;;0.00;0.00;;;;;20.46;85.78;100812.97;5057214;28;45456;-67
2023/09/01 01:50:33;;;;;;;;;0.50;0.50;;;;;20.48;85.06;100816.41;5059554;28;45425;-66
2023/09/01 01:52:59;;;;;;;;;2.00;1.00;;;;;20.41;85.24;100807.88;5059629;28;45430;-66
2023/09/01 01:55:24;;;;;;;;;0.00;0.00;;;;;20.47;84.97;100812.00;5060137;28;45380;-66
2023/09/01 01:57:49;;;;;;;;;0.25;0.00;;;;;20.41;85.12;100810.59;5055362;28;45464;-66
2023/09/01 02:00:15;;;;;;;;;0.00;0.00;;;;;20.43;84.88;100807.75;5060235;28;45422;-66
2023/09/01 02:02:42;;;;;;;;;1.00;1.00;;;;;20.38;85.09;100812.66;5058857;28;45594;-66
2023/09/01 02:05:08;;;;;;;;;3.00;0.00;;;;;20.40;84.33;100807.97;5059840;28;45516;-66
2023/09/01 02:07:34;;;;;;;;;0.00;0.00;;;;;20.42;84.84;100808.75;5057392;28;45701;-66
2023/09/01 02:09:59;;;;;;;;;1.00;1.00;;;;;20.42;84.58;100811.47;5069645;28;45434;-66
2023/09/01 02:12:25;;;;;;;;;0.00;0.00;;;;;20.40;84.67;100799.84;5059549;28;45373;-66
2023/09/01 02:14:50;;;;;;;;;2.00;1.00;;;;;20.36;84.47;100786.53;5058142;28;45434;-66
2023/09/01 02:17:15;;;;;;;;;0.50;0.50;;;;;20.38;84.25;100799.09;5074386;28;45720;-66
2023/09/01 02:19:41;;;;;;;;;0.25;0.00;;;;;20.45;84.09;100808.53;5059861;28;45219;-66
2023/09/01 02:22:06;;;;;;;;;0.00;0.00;;;;;20.42;83.80;100803.34;5059625;28;46412;-67
2023/09/01 02:24:32;;;;;;;;;0.00;0.00;;;;;20.43;84.00;100807.75;5059692;28;45316;-67
2023/09/01 02:26:58;;;;;;;;;0.00;0.00;;;;;20.43;83.73;100805.06;5057126;28;45329;-66
2023/09/01 02:29:23;;;;;;;;;0.00;0.00;;;;;20.40;84.05;100802.56;5059698;28;45754;-67
2023/09/01 02:31:48;;;;;;;;;0.00;0.00;;;;;20.29;83.47;100793.38;5058706;28;51169;-66
2023/09/01 02:34:14;;;;;;;;;0.00;0.00;;;;;20.32;83.88;100798.56;5059103;28;45428;-66
2023/09/01 02:36:39;;;;;;;;;0.00;0.00;;;;;20.31;83.17;100790.53;5059330;28;45344;-66
2023/09/01 02:39:04;;;;;;;;;1.00;0.25;;;;;20.33;83.34;100794.00;5058864;28;53834;-66
2023/09/01 02:41:30;;;;;;;;;0.75;0.75;;;;;20.31;83.63;100802.28;5074585;28;49880;-66
2023/09/01 02:43:57;;;;;;;;;0.00;0.00;;;;;20.27;83.33;100798.03;5059342;28;45476;-67
2023/09/01 02:46:23;;;;;;;;;0.00;0.00;;;;;20.30;83.51;100800.53;5058921;28;45380;-66
2023/09/01 02:48:49;;;;;;;;;0.50;0.25;;;;;20.31;82.93;100807.69;5058683;28;45366;-66
2023/09/01 02:51:14;;;;;;;;;1.00;1.00;;;;;20.24;83.61;100797.41;5059325;28;46472;-66
2023/09/01 02:53:39;;;;;;;;;1.00;0.00;;;;;20.28;83.43;100810.63;5059172;28;45469;-66
2023/09/01 02:56:05;;;;;;;;;1.00;0.00;;;;;20.22;83.18;100797.50;5058768;28;45393;-66
2023/09/01 02:58:31;;;;;;;;;1.25;0.00;;;;;20.25;82.79;100808.13;5058264;28;45564;-66
2023/09/01 03:00:56;;;;;;;;;0.00;0.00;;;;;20.23;83.11;100801.06;5058990;28;45609;-66
2023/09/01 03:03:22;;;;;;;;;0.00;0.00;;;;;20.26;82.74;100815.25;5058650;28;45352;-66
2023/09/01 03:05:50;;;;;;;;;0.00;0.00;;;;;20.18;82.96;100799.56;5055737;28;45584;-66
2023/09/01 03:08:17;;;;;;;;;0.00;0.00;;;;;20.27;82.89;100813.44;5036647;28;45534;-66
2023/09/01 03:10:43;;;;;;;;;0.00;0.00;;;;;20.25;82.88;100815.41;5058863;28;46251;-66
2023/09/01 03:13:09;;;;;;;;;0.50;0.50;;;;;20.24;82.89;100817.22;5058921;28;45374;-66
2023/09/01 03:15:34;;;;;;;;;2.00;1.00;;;;;20.19;82.95;100813.97;5058995;28;45985;-66
2023/09/01 03:18:00;;;;;;;;;0.00;0.00;;;;;20.19;82.99;100813.97;5057534;28;45468;-66
2023/09/01 03:20:25;;;;;;;;;0.75;0.00;;;;;20.16;82.72;100803.34;5053695;28;54736;-66
2023/09/01 03:22:51;;;;;;;;;0.00;0.00;;;;;20.16;83.21;100806.97;5050033;28;45318;-66
2023/09/01 03:25:17;;;;;;;;;0.25;0.00;;;;;20.13;82.86;100804.47;5059032;28;45486;-66
2023/09/01 03:27:43;;;;;;;;;0.00;0.00;;;;;20.17;83.02;100818.66;5053389;28;45251;-66
2023/09/01 03:30:10;;;;;;;;;0.00;0.00;;;;;20.17;83.36;100818.66;5057478;28;45424;-66
2023/09/01 03:32:36;;;;;;;;;0.75;0.75;;;;;20.13;82.96;100809.00;5058862;28;45512;-66
2023/09/01 03:35:02;;;;;;;;;0.50;0.50;;;;;20.11;83.04;100802.81;5074167;28;45373;-66
2023/09/01 03:37:28;;;;;;;;;0.75;0.75;;;;;20.12;83.16;100810.00;5053370;28;45511;-66
2023/09/01 03:39:53;;;;;;;;;0.25;0.25;;;;;20.10;83.08;100795.69;5048123;28;45557;-66
2023/09/01 03:42:19;;;;;;;;;1.00;0.00;;;;;20.04;83.12;100788.84;5058603;28;45325;-66
2023/09/01 03:44:44;;;;;;;;;1.00;1.00;;;;;20.09;82.99;100793.94;5058656;28;45547;-66
2023/09/01 03:47:10;;;;;;;;;0.25;0.25;;;;;20.09;83.17;100791.22;5057259;28;45569;-66
2023/09/01 03:49:36;;;;;;;;;0.00;0.00;;;;;20.11;82.94;100792.88;5058509;28;46272;-66
2023/09/01 03:52:01;;;;;;;;;1.00;0.00;;;;;20.12;83.02;100810.00;5058562;28;45276;-66
2023/09/01 03:54:27;;;;;;;;;0.00;0.00;;;;;20.10;83.08;100803.81;5058699;28;45229;-66
2023/09/01 03:56:52;;;;;;;;;1.00;1.00;;;;;20.06;83.54;100797.72;5048693;28;45463;-66
2023/09/01 03:59:18;;;;;;;;;0.50;0.50;;;;;20.05;83.23;100793.31;5056686;28;45557;-66
2023/09/01 04:01:44;;;;;;;;;1.50;1.50;;;;;20.08;83.38;100801.22;5058350;28;45531;-66
2023/09/01 04:04:09;;;;;;;;;1.00;0.00;;;;;20.05;83.55;100795.16;5058219;28;45421;-66
2023/09/01 04:06:35;;;;;;;;;1.25;1.00;;;;;20.02;83.55;100792.66;5051808;28;45572;-66
2023/09/01 04:09:00;;;;;;;;;1.00;1.00;;;;;20.01;83.25;100796.34;5049811;28;46697;-66
2023/09/01 04:11:25;;;;;;;;;0.50;0.50;;;;;20.01;83.63;100793.63;5051799;28;51657;-66
2023/09/01 04:13:51;;;;;;;;;0.00;0.00;;;;;20.01;83.68;100790.91;5057942;28;50701;-66
2023/09/01 04:16:16;;;;;;;;;1.00;1.00;;;;;19.99;83.73;100793.72;5058847;28;45389;-66
2023/09/01 04:18:41;;;;;;;;;0.75;0.75;;;;;19.96;83.55;100788.53;5060767;28;45983;-66
2023/09/01 04:21:06;;;;;;;;;0.00;0.00;;;;;19.99;83.63;100782.88;5061876;28;45392;-66
2023/09/01 04:23:32;;;;;;;;;0.00;0.00;;;;;19.99;83.33;100783.75;5061416;28;45979;-66
2023/09/01 04:25:57;;;;;;;;;2.00;1.00;;;;;19.94;83.52;100776.94;5060788;28;45693;-66
2023/09/01 04:28:23;;;;;;;;;1.00;1.00;;;;;19.97;83.57;100785.72;5059333;28;47132;-66
2023/09/01 04:30:48;;;;;;;;;2.00;1.00;;;;;19.89;83.48;100777.25;5060302;28;45450;-66
2023/09/01 04:33:14;;;;;;;;;0.00;0.00;;;;;19.92;83.80;100777.03;5061545;28;45347;-66
2023/09/01 04:35:39;;;;;;;;;1.75;1.50;;;;;19.89;83.75;100779.97;5060948;28;48850;-66
2023/09/01 04:38:05;;;;;;;;;0.50;0.50;;;;;19.88;84.17;100775.53;5052705;28;52932;-66
2023/09/01 04:40:31;;;;;;;;;1.00;1.00;;;;;19.90;83.95;100789.84;5061629;28;45313;-66
2023/09/01 04:42:56;;;;;;;;;1.00;1.00;;;;;19.89;83.65;100798.94;5058771;28;45511;-66
2023/09/01 04:45:25;;;;;;;;;1.00;1.00;;;;;19.71;84.16;100774.00;5061208;28;45406;-66
2023/09/01 04:47:51;;;;;;;;;1.25;1.25;;;;;19.89;84.25;100798.06;5059534;28;46435;-66
2023/09/01 04:50:17;;;;;;;;;2.25;1.00;;;;;19.82;84.18;100784.09;5060640;28;45455;-66
2023/09/01 04:52:42;;;;;;;;;1.00;1.00;;;;;19.86;84.17;100788.31;5061144;28;45374;-66
2023/09/01 04:55:08;;;;;;;;;2.50;2.50;;;;;19.78;84.17;100783.44;5048833;28;45609;-66
2023/09/01 04:57:35;;;;;;;;;2.50;1.00;;;;;19.82;84.17;100794.06;5058657;28;45430;-66
2023/09/01 05:00:00;;;;;;;;;1.25;1.00;;;;;19.78;84.34;100790.72;5059773;28;45478;-66
2023/09/01 05:02:25;;;;;;;;;3.00;1.00;;;;;19.73;84.54;100781.97;5070516;27;45401;-66
2023/09/01 05:04:51;;;;;;;;;1.00;1.00;;;;;19.77;84.41;100799.81;5060482;28;55885;-66
2023/09/01 05:07:16;;;;;;;;;1.00;1.00;;;;;19.79;84.73;100798.69;5059805;28;45671;-66
2023/09/01 05:09:42;;;;;;;;;1.00;1.00;;;;;19.82;84.50;100802.19;5059289;28;51348;-66
2023/09/01 05:12:07;;;;;;;;;1.00;1.00;;;;;19.81;84.38;100793.19;5060185;28;53041;-66
2023/09/01 05:14:32;;;;;;;;;1.00;1.00;;;;;19.86;84.55;100799.13;5061033;28;45307;-66
2023/09/01 05:16:58;;;;;;;;;3.00;2.00;;;;;19.87;84.59;100805.44;5060652;28;46179;-66
2023/09/01 05:19:23;;;;;;;;;2.00;2.00;;;;;19.85;84.67;100799.28;5058260;28;45369;-66
2023/09/01 05:21:48;;;;;;;;;2.00;2.00;;;;;19.84;84.48;100786.69;5060884;28;45316;-66
2023/09/01 05:24:14;;;;;;;;;1.00;1.00;;;;;19.87;84.64;100802.75;5075771;28;57627;-66
2023/09/01 05:26:40;;;;;;;;;1.00;1.00;;;;;19.84;84.56;100800.25;5056368;28;46210;-66
2023/09/01 05:29:06;;;;;;;;;1.00;1.00;;;;;19.81;84.84;100785.06;5059657;28;45729;-66
2023/09/01 05:31:31;;;;;;;;;1.00;1.00;;;;;19.82;84.80;100783.25;5060593;28;45378;-66
2023/09/01 05:33:56;;;;;;;;;0.25;0.25;;;;;19.82;85.20;100785.94;5059776;28;45433;-66
2023/09/01 05:36:21;;;;;;;;;2.00;1.50;;;;;19.85;84.84;100794.72;5062160;28;60038;-66
2023/09/01 05:38:47;;;;;;;;;0.75;0.75;;;;;19.84;85.18;100790.25;5051171;28;55017;-66
2023/09/01 05:41:13;;;;;;;;;1.00;1.00;;;;;19.83;85.26;100793.97;5053074;28;45656;-68
2023/09/01 05:43:38;;;;;;;;;2.00;2.00;;;;;19.81;85.35;100795.88;5057315;28;45569;-68
2023/09/01 05:46:04;;;;;;;;;1.00;1.00;;;;;19.79;85.17;100789.72;5056971;28;45515;-69
2023/09/01 05:48:29;;;;;;;;;1.00;1.00;;;;;19.85;85.13;100805.56;5059461;28;45489;-69
2023/09/01 05:50:55;;;;;;;;;2.25;1.00;;;;;19.81;85.33;100812.13;5057745;28;45452;-69
2023/09/01 05:53:21;;;;;;;;;1.00;1.00;;;;;19.84;85.17;100811.94;5058828;28;45757;-69
2023/09/01 05:55:47;;;;;;;;;1.25;1.25;;;;;19.82;86.01;100810.31;5059373;28;45357;-69
2023/09/01 05:58:13;;;;;;;;;1.75;1.00;;;;;19.77;85.51;100805.22;5059807;28;45399;-69
2023/09/01 06:00:38;;;;;;;;;0.00;0.00;;;;;19.84;85.20;100825.47;5058372;28;45491;-69
2023/09/01 06:03:04;;;;;;;;;1.50;1.00;;;;;19.80;85.60;100816.69;5069860;28;45369;-69
2023/09/01 06:05:30;;;;;;;;;0.00;0.00;;;;;19.79;85.78;100820.38;5060292;28;45389;-69
2023/09/01 06:07:55;;;;;;;;;1.00;1.00;;;;;19.84;85.85;100832.75;5058533;28;45956;-68
2023/09/01 06:10:20;;;;;;;;;1.00;1.00;;;;;19.85;85.46;100829.94;5073744;28;45378;-68
2023/09/01 06:12:46;;;;;;;;;2.25;1.00;;;;;19.88;85.79;100837.84;5055250;28;45559;-69
2023/09/01 06:15:11;;;;;;;;;0.50;0.50;;;;;19.90;85.84;100841.31;5061827;28;47318;-69
2023/09/01 06:17:37;;;;;;;;;1.00;1.00;;;;;19.87;85.74;100836.09;5057864;28;45559;-69
2023/09/01 06:20:04;;;;;;;;;1.00;1.00;;;;;19.83;85.69;100833.72;5059106;28;45389;-69
2023/09/01 06:22:30;;;;;;;;;2.00;2.00;;;;;19.89;85.78;100852.25;5059523;28;45449;-69
2023/09/01 06:24:55;;;;;;;;;1.00;1.00;;;;;19.89;85.58;100847.69;5056230;28;45397;-69
2023/09/01 06:27:20;;;;;;;;;1.00;1.00;;;;;19.83;85.84;100833.72;5056744;28;45484;-69
2023/09/01 06:29:45;;;;;;;;;2.00;2.00;;;;;19.94;86.21;100847.38;5057658;28;52523;-69
2023/09/01 06:32:11;;;;;;;;;4.00;2.00;;;;;19.97;85.72;100853.44;5058612;28;53566;-69
2023/09/01 06:34:40;;;;;;;;;0.75;0.75;;;;;19.98;85.88;100846.19;5055985;28;46549;-69
2023/09/01 06:37:05;;;;;;;;;2.00;1.00;;;;;19.95;85.81;100852.69;5057244;28;45548;-69
2023/09/01 06:39:31;;;;;;;;;1.00;1.00;;;;;20.01;86.41;100855.94;5056475;28;45546;-69
2023/09/01 06:41:57;;;;;;;;;1.00;1.00;;;;;19.94;85.91;100842.81;5058375;28;45433;-69
2023/09/01 06:44:22;;;;;;;;;1.00;1.00;;;;;19.95;86.34;100841.84;5057292;28;45636;-69
2023/09/01 06:46:48;;;;;;;;;1.75;1.75;;;;;20.02;86.24;100849.56;5056607;28;45643;-69
2023/09/01 06:49:14;;;;;;;;;2.25;0.75;;;;;20.01;86.07;100847.81;5056871;28;45611;-69
2023/09/01 06:51:40;;;;;;;;;1.75;1.75;;;;;20.03;86.24;100851.28;5051294;28;45605;-68
2023/09/01 06:54:05;;;;;;;;;1.00;1.00;;;;;20.02;86.31;100844.13;5053208;28;47039;-69
2023/09/01 06:56:30;;;;;;;;;2.00;1.00;;;;;20.02;85.99;100847.69;5057155;27;45401;-68
2023/09/01 06:58:56;;;;;;;;;0.75;0.75;;;;;20.04;86.14;100844.88;5053689;28;45967;-69
2023/09/01 07:01:21;;;;;;;;;2.00;2.00;;;;;20.04;86.29;100848.47;5059113;28;45497;-68
2023/09/01 07:03:47;;;;;;;;;1.00;1.00;;;;;20.03;86.72;100843.16;5052421;28;46140;-68
2023/09/01 07:06:12;;;;;;;;;3.00;1.50;;;;;20.09;86.92;100856.28;5072373;27;45879;-68
2023/09/01 07:08:38;;;;;;;;;1.00;1.00;;;;;20.03;87.17;100845.84;5055156;28;45993;-69
2023/09/01 07:11:05;;;;;;;;;1.00;1.00;;;;;20.08;87.27;100858.13;5066825;27;45489;-67
2023/09/01 07:13:31;;;;;;;;;1.00;0.25;;;;;20.04;87.13;100850.31;5053720;28;46013;-67
2023/09/01 07:15:57;;;;;;;;;0.50;0.50;;;;;20.06;86.90;100845.63;5046463;28;45518;-67
2023/09/01 07:18:23;;;;;;;;;1.00;1.00;;;;;20.06;87.34;100849.22;5049411;28;45477;-67
2023/09/01 07:20:50;;;;;;;;;1.00;1.00;;;;;20.11;86.89;100860.63;5056243;28;45360;-68
2023/09/01 07:23:16;;;;;;;;;0.75;0.75;;;;;20.10;87.20;100852.59;5056171;28;46894;-68
2023/09/01 07:25:44;;;;;;;;;0.25;0.25;;;;;20.12;87.21;100861.47;5056044;28;45518;-68
2023/09/01 07:28:12;;;;;;;;;1.00;0.25;;;;;20.13;87.78;100861.38;5054986;28;45395;-68
2023/09/01 07:30:37;;;;;;;;;0.25;0.25;;;;;20.14;87.38;100863.09;5056552;28;45502;-68
2023/09/01 07:33:03;;;;;;;;;1.00;1.00;;;;;20.12;87.29;100859.63;5046648;28;47586;-68
2023/09/01 07:35:28;;;;;;;;;0.00;0.00;;;;;20.10;87.80;100863.44;5057110;28;45635;-68
2023/09/01 07:37:55;;;;;;;;;0.00;0.00;;;;;20.08;88.09;100852.69;5056279;28;45372;-71
2023/09/01 07:40:21;;;;;;;;;0.75;0.75;;;;;20.16;88.01;100866.56;5055543;28;46709;-66
2023/09/01 07:42:46;;;;;;;;;0.00;0.00;;;;;20.13;88.43;100858.66;5055607;28;45389;-68
2023/09/01 07:45:12;;;;;;;;;0.75;0.75;;;;;20.11;88.21;100859.72;5071568;27;45458;-68
2023/09/01 07:47:37;;;;;;;;;0.00;0.00;;;;;20.12;88.39;100856.06;5072176;27;45394;-68
2023/09/01 07:50:03;;;;;;;;;0.00;0.00;;;;;20.16;88.62;100854.84;5055538;28;45485;-68
2023/09/01 07:52:29;;;;;;;;;1.00;0.00;;;;;20.12;88.33;100848.78;5059938;28;45666;-68
2023/09/01 07:54:54;;;;;;;;;0.75;0.75;;;;;20.08;88.21;100833.72;5059416;28;45359;-68
2023/09/01 07:57:20;;;;;;;;;1.00;1.00;;;;;20.11;88.73;100846.19;5059243;28;45391;-68
2023/09/01 07:59:45;;;;;;;;;0.00;0.00;;;;;20.24;88.98;100863.31;5059473;28;45686;-68
2023/09/01 08:02:10;;;;;;;;;0.00;0.00;;;;;20.17;89.13;100852.03;5055807;28;45640;-68
2023/09/01 08:04:36;;;;;;;;;2.00;0.00;;;;;20.11;88.96;100846.19;5074921;27;45414;-68
2023/09/01 08:07:01;;;;;;;;;0.25;0.00;;;;;20.17;88.88;100860.16;5059339;28;45553;-68
2023/09/01 08:09:26;;;;;;;;;0.00;0.00;;;;;20.13;88.84;100852.34;5066468;28;45735;-68
2023/09/01 08:11:52;;;;;;;;;0.00;0.00;;;;;20.11;89.06;100860.63;5073994;27;48140;-68
2023/09/01 08:14:17;;;;;;;;;0.00;0.00;;;;;20.17;88.88;100865.59;5060575;28;45493;-67
2023/09/01 08:16:42;;;;;;;;;0.00;0.00;;;;;20.10;88.95;100856.16;5057053;28;45504;-67
2023/09/01 08:19:09;;;;;;;;;0.00;0.00;;;;;20.10;88.70;100858.88;5060280;28;45545;-67
2023/09/01 08:21:35;;;;;;;;;0.25;0.25;;;;;20.24;89.35;100878.72;5057772;28;45560;-68
2023/09/01 08:24:01;;;;;;;;;0.75;0.00;;;;;20.27;89.18;100873.94;5057730;28;45463;-67
2023/09/01 08:26:26;;;;;;;;;0.00;0.00;;;;;20.15;88.90;100853.13;5058452;28;45272;-67
2023/09/01 08:28:52;;;;;;;;;2.50;0.00;;;;;20.19;89.09;100857.34;5060361;28;45350;-68
2023/09/01 08:31:17;;;;;;;;;0.00;0.00;;;;;20.22;88.97;100864.41;5056765;28;47415;-69
2023/09/01 08:33:44;;;;;;;;;0.00;0.00;;;;;20.38;88.35;100884.03;5059070;28;45444;-70
2023/09/01 08:36:09;;;;;;;;;0.00;0.00;;;;;20.14;88.44;100835.13;5060059;28;45508;-70
2023/09/01 08:38:35;;;;;;;;;0.00;0.00;;;;;20.39;88.57;100877.59;5058826;28;45604;-70
2023/09/01 08:41:04;;;;;;;;;1.00;0.75;;;;;20.27;88.56;100851.38;5057765;28;46242;-70
2023/09/01 08:43:38;;;;;;;;;0.75;0.75;;;;;20.47;88.44;100890.63;5054819;28;45584;-71
2023/09/01 08:46:04;;;;;;;;;0.00;0.00;;;;;20.35;88.21;100857.13;5051731;28;45490;-70
2023/09/01 08:48:31;;;;;;;;;0.00;0.00;;;;;20.23;88.03;100849.84;5056958;28;45787;-70
2023/09/01 08:50:57;;;;;;;;;1.00;0.00;;;;;20.44;88.04;100869.16;5058307;28;46438;-70
2023/09/01 08:53:25;;;;;;;;;0.50;0.50;;;;;20.46;88.62;100869.91;5068625;27;45724;-70
2023/09/01 08:55:50;;;;;;;;;1.00;1.00;;;;;20.52;87.90;100885.75;5066457;27;45540;-69
2023/09/01 08:58:17;;;;;;;;;1.00;1.00;;;;;20.54;87.97;100883.78;5058317;28;45406;-69
2023/09/01 09:00:43;;;;;;;;;1.00;1.00;;;;;20.64;87.78;100894.88;5059065;28;46426;-70
2023/09/01 09:03:11;;;;;;;;;2.00;1.00;;;;;20.61;87.65;100895.91;5055638;28;45490;-69
2023/09/01 09:05:36;;;;;;;;;2.50;2.50;;;;;20.50;87.25;100879.56;5044677;28;45438;-69
2023/09/01 09:08:07;;;;;;;;;3.00;2.00;;;;;20.58;87.47;100897.97;5058050;28;45292;-69
2023/09/01 09:10:38;;;;;;;;;1.25;1.00;;;;;20.62;87.35;100897.66;5076088;27;47684;-69
2023/09/01 09:13:19;;;;;;;;;1.00;1.00;;;;;20.59;86.45;100887.03;5065088;27;45661;-69
2023/09/01 09:15:44;;;;;;;;;2.00;1.00;;;;;20.64;87.05;100884.88;5054523;28;45564;-69
2023/09/01 09:18:09;;;;;;;;;2.75;1.25;;;;;20.60;86.51;100867.06;5058252;28;45560;-70
2023/09/01 09:20:37;;;;;;;;;1.25;1.25;;;;;20.69;86.79;100888.13;5058610;28;45386;-69
2023/09/01 09:23:03;;;;;;;;;2.00;1.00;;;;;20.63;85.79;100863.28;5054576;28;45444;-69
2023/09/01 09:25:31;;;;;;;;;2.00;2.00;;;;;20.67;86.94;100868.38;5071723;27;45520;-69
2023/09/01 09:28:13;;;;;;;;;1.00;1.00;;;;;20.85;86.28;100892.44;5052721;28;45630;-69
2023/09/01 09:30:51;;;;;;;;;1.00;1.00;;;;;20.88;86.51;100889.47;5057985;28;46279;-69
2023/09/01 09:33:26;;;;;;;;;2.00;1.00;;;;;20.82;86.67;100868.25;5048538;28;45660;-69
2023/09/01 09:35:51;;;;;;;;;1.00;1.00;;;;;20.99;85.87;100897.72;5052991;28;45775;-70
2023/09/01 09:38:17;;;;;;;;;0.00;0.00;;;;;20.94;85.24;100875.47;5072549;27;45415;-69
2023/09/01 09:40:55;;;;;;;;;1.25;0.75;;;;;20.90;84.38;100871.25;5059397;28;46439;-70
2023/09/01 09:43:20;;;;;;;;;1.00;1.00;;;;;20.96;84.17;100868.06;5055061;28;45560;-69
2023/09/01 09:45:46;;;;;;;;;0.75;0.75;;;;;21.00;84.33;100864.16;5056489;28;45533;-69
2023/09/01 09:48:12;;;;;;;;;2.00;2.00;;;;;21.03;84.16;100869.38;5056862;28;45741;-68
2023/09/01 09:50:39;;;;;;;;;1.00;1.00;;;;;21.14;84.07;100887.56;5058457;28;45449;-77
2023/09/01 09:53:06;;;;;;;;;2.00;1.00;;;;;21.23;83.90;100894.13;5059751;28;45428;-74
2023/09/01 09:55:45;;;;;;;;;0.00;0.00;;;;;21.10;84.13;100873.34;5055709;28;45414;-77
2023/09/01 09:58:11;;;;;;;;;1.00;1.00;;;;;21.23;83.69;100883.28;5061080;28;46285;-73
2023/09/01 10:00:49;;;;;;;;;1.50;1.00;;;;;21.36;83.10;100903.09;5045663;28;47385;-72
2023/09/01 10:03:15;;;;;;;;;1.00;1.00;;;;;21.31;83.10;100883.56;5064437;27;45483;-72
2023/09/01 10:05:43;;;;;;;;;1.00;1.00;;;;;21.28;83.29;100872.94;5056886;28;45325;-73
2023/09/01 10:08:09;;;;;;;;;1.00;1.00;;;;;21.31;83.02;100886.28;5064242;28;45723;-73
2023/09/01 10:10:36;;;;;;;;;0.75;0.75;;;;;21.38;83.15;100881.25;5054739;28;47378;-73
2023/09/01 10:13:03;;;;;;;;;0.00;0.00;;;;;21.54;82.21;100909.03;5072492;27;47165;-73
2023/09/01 10:15:31;;;;;;;;;2.00;1.00;;;;;21.43;82.08;100893.53;5053143;28;45552;-73
2023/09/01 10:18:00;;;;;;;;;0.50;0.50;;;;;21.59;82.16;100905.97;5052863;28;45406;-73
2023/09/01 10:20:27;;;;;;;;;1.00;1.00;;;;;21.55;81.75;100883.63;5054331;28;47021;-73
2023/09/01 10:22:54;;;;;;;;;1.00;1.00;;;;;21.70;81.67;100900.59;5055144;28;45331;-74
2023/09/01 10:25:20;;;;;;;;;4.00;1.00;;;;;21.59;81.84;100866.09;5054512;28;45592;-74
2023/09/01 10:28:11;;;;;;;;;1.75;0.50;;;;;21.86;81.88;100892.09;5056973;28;45761;-74
2023/09/01 10:30:41;;;;;;;;;1.25;1.00;;;;;21.73;81.08;100869.59;5051316;28;47236;-73
2023/09/01 10:33:15;;;;;;;;;0.00;0.00;;;;;21.90;80.39;100892.72;5051118;28;45592;-73
2023/09/01 10:35:44;;;;;;;;;0.00;0.00;;;;;21.84;80.17;100884.06;5053922;28;45486;-74
2023/09/01 10:38:16;;;;;;;;;0.00;0.00;;;;;21.86;79.44;100883.09;5057484;28;45471;-72
2023/09/01 10:40:53;;;;;;;;;0.00;0.00;;;;;21.90;79.65;100892.72;5056527;28;48001;-72
2023/09/01 10:43:37;;;;;;;;;1.00;1.00;;;;;22.06;79.50;100909.56;5059193;28;45629;-72
2023/09/01 10:46:14;;;;;;;;;1.00;1.00;;;;;22.07;78.80;100916.75;5052022;28;45541;-72
2023/09/01 10:48:57;;;;;;;;;1.00;1.00;;;;;22.03;79.38;100915.25;5048514;28;45734;-72
2023/09/01 10:51:28;;;;;;;;;1.00;0.75;;;;;21.94;79.72;100886.94;5061407;28;47006;-72
2023/09/01 10:54:04;;;;;;;;;0.00;0.00;;;;;22.07;78.73;100899.56;5055603;28;46701;-72
2023/09/01 10:56:33;;;;;;;;;0.00;0.00;;;;;21.99;78.80;100889.31;5057508;28;45274;-72
2023/09/01 10:58:58;;;;;;;;;1.00;1.00;;;;;22.12;79.10;100897.34;5057131;28;45723;-71
2023/09/01 11:01:37;;;;;;;;;1.00;1.00;;;;;22.05;78.68;100877.06;5058346;28;45505;-71
2023/09/01 11:04:21;;;;;;;;;1.75;0.75;;;;;22.26;79.45;100912.59;5051616;28;45446;-72
2023/09/01 11:06:59;;;;;;;;;3.50;3.50;;;;;22.30;78.43;100906.81;5055952;28;45562;-71
2023/09/01 11:09:34;;;;;;;;;1.50;1.50;;;;;22.34;78.46;100904.72;5044112;28;45650;-72
2023/09/01 11:12:07;;;;;;;;;0.00;0.00;;;;;22.36;78.18;100910.91;5057504;28;46135;-72
2023/09/01 11:14:34;;;;;;;;;0.00;0.00;;;;;22.31;77.72;100896.81;5071634;28;45559;-71
2023/09/01 11:17:03;;;;;;;;;0.75;0.75;;;;;22.34;77.37;100896.56;5056328;28;45418;-72
2023/09/01 11:19:46;;;;;;;;;0.00;0.00;;;;;22.45;77.22;100914.72;5057436;28;45524;-72
2023/09/01 11:22:11;;;;;;;;;0.00;0.00;;;;;22.43;77.44;100912.13;5073299;28;48258;-72
2023/09/01 11:24:37;;;;;;;;;1.00;1.00;;;;;22.42;76.82;100907.69;5050751;28;45512;-72